createdAt,value
2019-04-01T00:00:37.936Z,25.4261
2019-04-01T00:01:40.228Z,25.4719
2019-04-01T00:02:42.577Z,25.5909
2019-04-01T00:03:44.872Z,25.6077
2019-04-01T00:04:47.173Z,25.5772
2019-04-01T00:05:49.464Z,25.5161
2019-04-01T00:06:51.756Z,25.5589
2019-04-01T00:07:54.051Z,25.6184
2019-04-01T00:08:56.344Z,25.6321
2019-04-01T00:09:58.720Z,25.6626
2019-04-01T00:11:01.020Z,25.6046
2019-04-01T00:12:03.307Z,25.5894
2019-04-01T00:13:05.623Z,25.6458
2019-04-01T00:14:07.916Z,25.6168
2019-04-01T00:15:10.218Z,25.6901
2019-04-01T00:16:12.507Z,25.6733
2019-04-01T00:17:14.802Z,25.6168
2019-04-01T00:18:17.124Z,25.6733
2019-04-01T00:19:19.418Z,25.6916
2019-04-01T00:20:21.715Z,25.6306
2019-04-01T00:21:23.999Z,25.6733
2019-04-01T00:22:26.287Z,25.6138
2019-04-01T00:23:28.606Z,25.6443
2019-04-01T00:24:30.894Z,25.6733
2019-04-01T00:25:33.180Z,25.7313
2019-04-01T00:26:35.476Z,25.6443
2019-04-01T00:27:37.803Z,25.5680
2019-04-01T00:28:40.089Z,25.7008
2019-04-01T00:29:42.385Z,25.6718
2019-04-01T00:30:44.671Z,25.6550
2019-04-01T00:31:46.998Z,25.6535
2019-04-01T00:32:49.374Z,25.6550
2019-04-01T00:33:51.669Z,25.6718
2019-04-01T00:34:53.969Z,25.6687
2019-04-01T00:35:56.255Z,25.6962
2019-04-01T00:36:58.552Z,25.5482
2019-04-01T00:38:00.836Z,25.7588
2019-04-01T00:39:03.129Z,25.7588
2019-04-01T00:40:05.501Z,25.7404
2019-04-01T00:41:07.788Z,25.7832
2019-04-01T00:42:10.077Z,25.7404
2019-04-01T00:43:12.373Z,25.7420
2019-04-01T00:44:14.688Z,25.7099
2019-04-01T00:45:16.977Z,25.6077
2019-04-01T00:46:19.277Z,25.6825
2019-04-01T00:47:21.564Z,25.7084
2019-04-01T00:48:23.854Z,25.6947
2019-04-01T00:49:26.185Z,25.6947
2019-04-01T00:50:28.484Z,25.6168
2019-04-01T00:51:30.777Z,25.7679
2019-04-01T00:52:33.084Z,25.7053
2019-04-01T00:53:35.368Z,25.7221
2019-04-01T00:54:37.686Z,25.7816
2019-04-01T00:55:39.975Z,25.7603
2019-04-01T00:56:42.282Z,25.6443
2019-04-01T00:57:44.577Z,25.7359
2019-04-01T00:58:46.862Z,25.6626
2019-04-01T00:59:49.190Z,25.7191
2019-04-01T01:00:51.481Z,25.7633
2019-04-01T01:01:53.784Z,25.7496
2019-04-01T01:02:56.082Z,25.7511
2019-04-01T01:03:58.376Z,25.8503
2019-04-01T01:05:00.693Z,25.7923
2019-04-01T01:06:02.984Z,25.7603
2019-04-01T01:07:05.271Z,25.8061
2019-04-01T01:08:07.588Z,25.7908
2019-04-01T01:09:09.880Z,25.7603
2019-04-01T01:10:12.196Z,25.8183
2019-04-01T01:11:14.484Z,25.6580
2019-04-01T01:12:16.781Z,25.6870
2019-04-01T01:13:19.073Z,25.7008
2019-04-01T01:14:21.363Z,25.7588
2019-04-01T01:15:23.686Z,25.7282
2019-04-01T01:16:25.971Z,25.7740
2019-04-01T01:17:28.263Z,25.8183
2019-04-01T01:18:30.549Z,25.6718
2019-04-01T01:19:32.844Z,25.7450
2019-04-01T01:20:35.162Z,25.8778
2019-04-01T01:21:37.454Z,25.8015
2019-04-01T01:22:39.746Z,25.8778
2019-04-01T01:23:42.034Z,25.8106
2019-04-01T01:24:44.328Z,25.7557
2019-04-01T01:25:46.644Z,25.8610
2019-04-01T01:26:48.934Z,25.8747
2019-04-01T01:27:51.225Z,25.8595
2019-04-01T01:28:53.525Z,25.8289
2019-04-01T01:29:55.811Z,25.8137
2019-04-01T01:30:58.192Z,25.8137
2019-04-01T01:32:00.518Z,25.7557
2019-04-01T01:33:02.822Z,25.7862
2019-04-01T01:34:05.125Z,25.7404
2019-04-01T01:35:07.427Z,25.7862
2019-04-01T01:36:09.749Z,25.8137
2019-04-01T01:37:12.026Z,25.8000
2019-04-01T01:38:14.322Z,25.7832
2019-04-01T01:39:16.614Z,25.9159
2019-04-01T01:40:18.907Z,25.8000
2019-04-01T01:41:21.227Z,25.8106
2019-04-01T01:42:23.524Z,25.7511
2019-04-01T01:43:25.809Z,25.7969
2019-04-01T01:44:28.087Z,25.6779
2019-04-01T01:45:30.383Z,25.7221
2019-04-01T01:46:32.708Z,25.6916
2019-04-01T01:47:34.991Z,25.7374
2019-04-01T01:48:37.285Z,25.8549
2019-04-01T01:49:39.583Z,25.7496
2019-04-01T01:50:41.871Z,25.8091
2019-04-01T01:51:44.189Z,25.7786
2019-04-01T01:52:46.484Z,25.8518
2019-04-01T01:53:48.773Z,25.8366
2019-04-01T01:54:51.070Z,25.7649
2019-04-01T01:55:53.394Z,25.7908
2019-04-01T01:56:55.706Z,25.8045
2019-04-01T01:57:58.001Z,25.8656
2019-04-01T01:59:00.292Z,25.8045
2019-04-01T02:00:02.596Z,25.9251
2019-04-01T02:01:04.897Z,25.8366
2019-04-01T02:02:07.183Z,25.8473
2019-04-01T02:03:09.467Z,25.8778
2019-04-01T02:04:11.753Z,25.8915
2019-04-01T02:05:14.049Z,25.9373
2019-04-01T02:06:16.345Z,25.8747
2019-04-01T02:07:18.643Z,25.8610
2019-04-01T02:08:20.940Z,25.8747
2019-04-01T02:09:23.230Z,25.9648
2019-04-01T02:10:25.594Z,25.9205
2019-04-01T02:11:27.896Z,25.9480
2019-04-01T02:12:30.183Z,25.9052
2019-04-01T02:13:32.473Z,25.9342
2019-04-01T02:14:34.768Z,25.9052
2019-04-01T02:15:44.891Z,25.9373
2019-04-01T02:16:47.185Z,25.8885
2019-04-01T02:17:49.505Z,25.9464
2019-04-01T02:18:51.796Z,25.9373
2019-04-01T02:19:54.086Z,25.9602
2019-04-01T02:20:56.376Z,25.9602
2019-04-01T02:21:58.668Z,26.0349
2019-04-01T02:23:00.971Z,26.0060
2019-04-01T02:24:03.287Z,25.9892
2019-04-01T02:25:05.587Z,25.9571
2019-04-01T02:26:07.881Z,26.0060
2019-04-01T02:27:10.169Z,25.9876
2019-04-01T02:28:12.487Z,26.0166
2019-04-01T02:29:14.787Z,26.0441
2019-04-01T02:30:17.080Z,26.0716
2019-04-01T02:31:19.375Z,26.0746
2019-04-01T02:32:21.672Z,26.1021
2019-04-01T02:33:24.014Z,26.0441
2019-04-01T02:34:26.326Z,26.0853
2019-04-01T02:35:28.620Z,26.1158
2019-04-01T02:36:30.940Z,26.1311
2019-04-01T02:37:33.248Z,26.1021
2019-04-01T02:38:35.579Z,26.0578
2019-04-01T02:39:37.867Z,26.0441
2019-04-01T02:40:40.173Z,26.0578
2019-04-01T02:41:42.477Z,26.0700
2019-04-01T02:42:44.793Z,26.1021
2019-04-01T02:43:47.118Z,26.0990
2019-04-01T02:44:49.409Z,26.1158
2019-04-01T02:45:51.705Z,26.1295
2019-04-01T02:46:54.016Z,26.1433
2019-04-01T02:47:56.313Z,26.1433
2019-04-01T02:48:58.628Z,26.1448
2019-04-01T02:50:00.916Z,26.1433
2019-04-01T02:51:03.214Z,26.1433
2019-04-01T02:52:05.534Z,26.1707
2019-04-01T02:53:07.842Z,26.1402
2019-04-01T02:54:10.175Z,26.1860
2019-04-01T02:55:12.468Z,26.1295
2019-04-01T02:56:14.767Z,26.2043
2019-04-01T02:57:17.067Z,26.1295
2019-04-01T02:58:19.369Z,26.2028
2019-04-01T02:59:21.738Z,26.2257
2019-04-01T03:00:24.042Z,26.1860
2019-04-01T03:01:26.338Z,26.2592
2019-04-01T03:02:28.645Z,26.2409
2019-04-01T03:03:30.955Z,26.2730
2019-04-01T03:04:33.292Z,26.3172
2019-04-01T03:05:35.591Z,26.2989
2019-04-01T03:06:37.932Z,26.1997
2019-04-01T03:07:40.237Z,26.2440
2019-04-01T03:08:42.531Z,26.3172
2019-04-01T03:09:44.841Z,26.3279
2019-04-01T03:10:47.137Z,26.3584
2019-04-01T03:11:49.439Z,26.2989
2019-04-01T03:12:51.763Z,26.3127
2019-04-01T03:13:54.081Z,26.4042
2019-04-01T03:14:56.408Z,26.3417
2019-04-01T03:15:58.705Z,26.3279
2019-04-01T03:17:01.013Z,26.4012
2019-04-01T03:18:03.320Z,26.4134
2019-04-01T03:19:05.635Z,26.3279
2019-04-01T03:20:07.942Z,26.3859
2019-04-01T03:21:10.253Z,26.4775
2019-04-01T03:22:12.549Z,26.4012
2019-04-01T03:23:14.841Z,26.4134
2019-04-01T03:24:17.150Z,26.4012
2019-04-01T03:25:19.467Z,26.4607
2019-04-01T03:26:21.770Z,26.3874
2019-04-01T03:27:24.066Z,26.4286
2019-04-01T03:28:26.371Z,26.4424
2019-04-01T03:29:28.669Z,26.4866
2019-04-01T03:30:30.983Z,26.4881
2019-04-01T03:31:33.307Z,26.5156
2019-04-01T03:32:35.611Z,26.4729
2019-04-01T03:33:37.942Z,26.5293
2019-04-01T03:34:40.236Z,26.5324
2019-04-01T03:35:42.557Z,26.5324
2019-04-01T03:36:44.847Z,26.5293
2019-04-01T03:37:47.137Z,26.4729
2019-04-01T03:38:49.441Z,26.5293
2019-04-01T03:39:51.782Z,26.5415
2019-04-01T03:40:54.149Z,26.6026
2019-04-01T03:41:56.443Z,26.6163
2019-04-01T03:42:58.755Z,26.5705
2019-04-01T03:44:01.077Z,26.6163
2019-04-01T03:45:03.364Z,26.5415
2019-04-01T03:46:05.669Z,26.6300
2019-04-01T03:47:07.966Z,26.6300
2019-04-01T03:48:10.269Z,26.6300
2019-04-01T03:49:12.929Z,26.6758
2019-04-01T03:50:15.300Z,26.7033
2019-04-01T03:51:17.600Z,26.6743
2019-04-01T03:52:19.903Z,26.7170
2019-04-01T03:53:22.200Z,26.7765
2019-04-01T03:54:24.489Z,26.7018
2019-04-01T03:55:26.786Z,26.6850
2019-04-01T03:56:29.108Z,26.7720
2019-04-01T03:57:31.395Z,26.7720
2019-04-01T03:58:33.686Z,26.8299
2019-04-01T03:59:35.996Z,26.8177
2019-04-01T04:00:38.298Z,26.8315
2019-04-01T04:01:40.630Z,26.8040
2019-04-01T04:02:42.935Z,26.8315
2019-04-01T04:03:45.260Z,26.8620
2019-04-01T04:04:47.558Z,26.8620
2019-04-01T04:05:49.864Z,26.8757
2019-04-01T04:06:52.202Z,26.8757
2019-04-01T04:07:54.501Z,26.8910
2019-04-01T04:09:01.429Z,26.8895
2019-04-01T04:10:05.044Z,26.8589
2019-04-01T04:11:07.353Z,26.9352
2019-04-01T04:12:09.686Z,26.9917
2019-04-01T04:13:11.996Z,26.9627
2019-04-01T04:14:14.303Z,26.9764
2019-04-01T04:15:16.595Z,26.9490
2019-04-01T04:16:18.905Z,26.9627
2019-04-01T04:17:21.234Z,27.0191
2019-04-01T04:18:23.527Z,27.0054
2019-04-01T04:19:25.858Z,27.0649
2019-04-01T04:20:28.149Z,27.0649
2019-04-01T04:21:30.446Z,27.0954
2019-04-01T04:22:32.795Z,27.0634
2019-04-01T04:23:35.104Z,27.0649
2019-04-01T04:24:37.396Z,27.1519
2019-04-01T04:25:39.699Z,27.1199
2019-04-01T04:26:41.991Z,27.2526
2019-04-01T04:27:44.333Z,27.2557
2019-04-01T04:28:46.630Z,27.2114
2019-04-01T04:29:48.921Z,27.3121
2019-04-01T04:30:51.226Z,27.2236
2019-04-01T04:31:53.538Z,27.2984
2019-04-01T04:32:55.867Z,27.3259
2019-04-01T04:33:58.164Z,27.2663
2019-04-01T04:35:00.479Z,27.3259
2019-04-01T04:36:02.793Z,27.3259
2019-04-01T04:37:05.112Z,27.2511
2019-04-01T04:38:07.544Z,27.2663
2019-04-01T04:39:09.843Z,27.2694
2019-04-01T04:40:12.162Z,27.2801
2019-04-01T04:41:14.461Z,27.2511
2019-04-01T04:42:16.749Z,27.2831
2019-04-01T04:43:19.088Z,27.3106
2019-04-01T04:44:21.377Z,27.3671
2019-04-01T04:45:23.661Z,27.3808
2019-04-01T04:46:25.949Z,27.4311
2019-04-01T04:47:28.250Z,27.4296
2019-04-01T04:48:30.572Z,27.4266
2019-04-01T04:49:32.854Z,27.5044
2019-04-01T04:50:35.155Z,27.3701
2019-04-01T04:51:37.444Z,27.4266
2019-04-01T04:52:39.736Z,27.4571
2019-04-01T04:53:42.053Z,27.4998
2019-04-01T04:54:44.346Z,27.5135
2019-04-01T04:55:46.634Z,27.5135
2019-04-01T04:56:48.920Z,27.5273
2019-04-01T04:57:51.217Z,27.4998
2019-04-01T04:58:53.529Z,27.4861
2019-04-01T04:59:55.830Z,27.5898
2019-04-01T05:00:58.135Z,27.5593
2019-04-01T05:02:00.502Z,27.5456
2019-04-01T05:03:02.879Z,27.5181
2019-04-01T05:04:05.262Z,27.4617
2019-04-01T05:05:07.563Z,27.5822
2019-04-01T05:06:09.856Z,27.5822
2019-04-01T05:07:12.158Z,27.5669
2019-04-01T05:08:14.453Z,27.5532
2019-04-01T05:09:16.764Z,27.5685
2019-04-01T05:10:19.054Z,27.6097
2019-04-01T05:11:21.354Z,27.4800
2019-04-01T05:12:23.666Z,27.4815
2019-04-01T05:13:25.953Z,27.5090
2019-04-01T05:14:28.252Z,27.4220
2019-04-01T05:15:30.540Z,27.4952
2019-04-01T05:16:32.844Z,27.4815
2019-04-01T05:17:35.139Z,27.4800
2019-04-01T05:18:37.429Z,27.4815
2019-04-01T05:19:39.738Z,27.4952
2019-04-01T05:20:42.033Z,27.5715
2019-04-01T05:21:44.341Z,27.4998
2019-04-01T05:22:46.629Z,27.4998
2019-04-01T05:23:48.937Z,27.6036
2019-04-01T05:24:51.294Z,27.5868
2019-04-01T05:25:53.588Z,27.5914
2019-04-01T05:27:02.999Z,27.5914
2019-04-01T05:28:13.020Z,27.5914
2019-04-01T05:29:15.311Z,27.6509
2019-04-01T05:30:17.253Z,27.6631
2019-04-01T05:31:19.543Z,27.6783
2019-04-01T05:32:21.828Z,27.6921
2019-04-01T05:33:24.197Z,27.6631
2019-04-01T05:34:26.495Z,27.6921
2019-04-01T05:35:28.812Z,27.6951
2019-04-01T05:36:31.100Z,27.6371
2019-04-01T05:37:33.405Z,27.6356
2019-04-01T05:38:35.692Z,27.7104
2019-04-01T05:39:38.064Z,27.6783
2019-04-01T05:40:40.402Z,27.7379
2019-04-01T05:41:42.690Z,27.7546
2019-04-01T05:42:44.980Z,27.7546
2019-04-01T05:43:47.275Z,27.7867
2019-04-01T05:44:49.569Z,27.8599
2019-04-01T05:45:51.882Z,27.7836
2019-04-01T05:46:54.186Z,27.8599
2019-04-01T05:47:56.478Z,27.8141
2019-04-01T05:48:58.766Z,27.9057
2019-04-01T05:50:01.072Z,27.9469
2019-04-01T05:51:03.392Z,27.9759
2019-04-01T05:52:05.680Z,28.0674
2019-04-01T05:53:07.984Z,27.9927
2019-04-01T05:54:10.278Z,28.0354
2019-04-01T05:55:12.579Z,28.0110
2019-04-01T05:56:14.891Z,28.0217
2019-04-01T05:57:17.254Z,28.0674
2019-04-01T05:58:19.542Z,28.0110
2019-04-01T05:59:21.820Z,28.1086
2019-04-01T06:00:24.123Z,28.0522
2019-04-01T06:01:26.437Z,28.0385
2019-04-01T06:02:28.744Z,28.1437
2019-04-01T06:03:31.048Z,28.0842
2019-04-01T06:04:33.336Z,28.0980
2019-04-01T06:05:35.708Z,28.1117
2019-04-01T06:06:38.070Z,28.1727
2019-04-01T06:07:40.359Z,28.2918
2019-04-01T06:08:42.648Z,28.3040
2019-04-01T06:09:44.967Z,28.2307
2019-04-01T06:10:47.264Z,28.3330
2019-04-01T06:11:49.575Z,28.3513
2019-04-01T06:12:51.870Z,28.2460
2019-04-01T06:13:54.164Z,28.3970
2019-04-01T06:14:56.453Z,28.4092
2019-04-01T06:15:58.761Z,28.3650
2019-04-01T06:17:01.087Z,28.3925
2019-04-01T06:18:03.383Z,28.3772
2019-04-01T06:19:06.103Z,28.4108
2019-04-01T06:20:08.542Z,28.3223
2019-04-01T06:21:10.832Z,28.5252
2019-04-01T06:22:13.132Z,28.5283
2019-04-01T06:23:15.434Z,28.5878
2019-04-01T06:24:17.727Z,28.5435
2019-04-01T06:25:20.043Z,28.6198
2019-04-01T06:26:22.347Z,28.6305
2019-04-01T06:27:25.006Z,28.5740
2019-04-01T06:28:27.605Z,28.6168
2019-04-01T06:29:29.896Z,28.6015
2019-04-01T06:30:32.191Z,28.5435
2019-04-01T06:31:34.490Z,28.6198
2019-04-01T06:32:36.796Z,28.6061
2019-04-01T06:33:39.154Z,28.6351
2019-04-01T06:34:52.296Z,28.6931
2019-04-01T06:35:49.717Z,28.6625
2019-04-01T06:36:52.022Z,28.6946
2019-04-01T06:37:54.322Z,28.7114
2019-04-01T06:38:56.625Z,28.7251
2019-04-01T06:39:58.926Z,28.8441
2019-04-01T06:41:01.295Z,28.9006
2019-04-01T06:42:05.625Z,28.8273
2019-04-01T06:43:09.417Z,28.9601
2019-04-01T06:44:11.706Z,28.9586
2019-04-01T06:45:14.013Z,29.0318
2019-04-01T06:46:16.310Z,29.0318
2019-04-01T06:47:18.611Z,29.1508
2019-04-01T06:48:20.906Z,29.1234
2019-04-01T06:49:23.194Z,29.1508
2019-04-01T06:50:25.483Z,29.0913
2019-04-01T06:51:27.786Z,29.3111
2019-04-01T06:52:30.093Z,29.2241
2019-04-01T06:53:32.395Z,29.3126
2019-04-01T06:54:34.687Z,29.2882
2019-04-01T06:55:36.983Z,29.3568
2019-04-01T06:56:39.275Z,29.4179
2019-04-01T06:57:41.569Z,29.4179
2019-04-01T06:58:43.865Z,29.4804
2019-04-01T06:59:46.155Z,29.4316
2019-04-01T07:00:48.453Z,29.3477
2019-04-01T07:01:50.765Z,29.3614
2019-04-01T07:02:53.056Z,29.5079
2019-04-01T07:03:55.351Z,29.5232
2019-04-01T07:04:57.640Z,29.5644
2019-04-01T07:05:59.937Z,29.6544
2019-04-01T07:07:02.232Z,29.5964
2019-04-01T07:08:04.529Z,29.5232
2019-04-01T07:09:06.863Z,29.6407
2019-04-01T07:10:09.151Z,29.7139
2019-04-01T07:11:11.438Z,29.6880
2019-04-01T07:12:13.729Z,29.6727
2019-04-01T07:13:16.016Z,29.7292
2019-04-01T07:14:18.369Z,29.8375
2019-04-01T07:15:20.677Z,29.8802
2019-04-01T07:16:22.964Z,29.7017
2019-04-01T07:17:25.286Z,29.7780
2019-04-01T07:18:27.588Z,29.8939
2019-04-01T07:19:29.908Z,29.8512
2019-04-01T07:20:32.206Z,29.8833
2019-04-01T07:21:34.500Z,29.8970
2019-04-01T07:22:36.800Z,29.9992
2019-04-01T07:23:39.087Z,29.9443
2019-04-01T07:24:41.399Z,30.0298
2019-04-01T07:25:43.686Z,30.0175
2019-04-01T07:26:45.981Z,30.2693
2019-04-01T07:27:48.355Z,30.1808
2019-04-01T07:28:50.655Z,30.3243
2019-04-01T07:29:52.969Z,30.0633
2019-04-01T07:30:55.260Z,30.1091
2019-04-01T07:31:57.558Z,30.1961
2019-04-01T07:32:59.843Z,30.2281
2019-04-01T07:34:02.143Z,30.1076
2019-04-01T07:35:04.448Z,30.2129
2019-04-01T07:36:06.737Z,30.2998
2019-04-01T07:37:09.034Z,30.2831
2019-04-01T07:38:11.369Z,30.1686
2019-04-01T07:39:13.668Z,30.3044
2019-04-01T07:40:15.966Z,30.3471
2019-04-01T07:41:18.262Z,30.2449
2019-04-01T07:42:20.550Z,30.2739
2019-04-01T07:43:24.880Z,30.3044
2019-04-01T07:44:27.222Z,30.4479
2019-04-01T07:45:29.521Z,30.4967
2019-04-01T07:46:31.821Z,30.4112
2019-04-01T07:47:34.124Z,30.3639
2019-04-01T07:48:36.418Z,30.2815
2019-04-01T07:49:38.712Z,30.0267
2019-04-01T07:50:41.007Z,30.0481
2019-04-01T07:51:43.309Z,30.0450
2019-04-01T07:52:45.608Z,29.9123
2019-04-01T07:53:47.914Z,30.0710
2019-04-01T07:54:50.266Z,30.0816
2019-04-01T07:55:52.563Z,30.2876
2019-04-01T07:56:54.863Z,30.2129
2019-04-01T07:57:59.757Z,30.2098
2019-04-01T07:59:02.271Z,30.2556
2019-04-01T08:00:04.570Z,30.4158
2019-04-01T08:01:06.894Z,30.6172
2019-04-01T08:02:09.188Z,30.7591
2019-04-01T08:03:19.157Z,30.6569
2019-04-01T08:04:29.168Z,30.6249
2019-04-01T08:05:38.838Z,30.7301
2019-04-01T08:06:41.127Z,30.7546
2019-04-01T08:07:43.439Z,30.7820
2019-04-01T08:08:46.382Z,30.8873
2019-04-01T08:09:48.777Z,30.9560
2019-04-01T08:10:51.073Z,31.0872
2019-04-01T08:11:53.395Z,30.9560
2019-04-01T08:12:55.698Z,30.9834
2019-04-01T08:13:57.990Z,30.9224
2019-04-01T08:15:00.416Z,31.1421
2019-04-01T08:16:02.721Z,31.1803
2019-04-01T08:17:05.024Z,31.1116
2019-04-01T08:18:07.332Z,31.2840
2019-04-01T08:19:09.621Z,31.4366
2019-04-01T08:20:20.208Z,31.2154
2019-04-01T08:21:22.510Z,31.2856
2019-04-01T08:22:24.808Z,31.4443
2019-04-01T08:23:27.097Z,31.3848
2019-04-01T08:24:29.397Z,31.5145
2019-04-01T08:25:31.780Z,31.3390
2019-04-01T08:26:34.080Z,31.4260
2019-04-01T08:27:36.409Z,31.7205
2019-04-01T08:28:38.706Z,31.5496
2019-04-01T08:29:40.995Z,31.5740
2019-04-01T08:30:43.294Z,31.5404
2019-04-01T08:31:45.586Z,31.6457
2019-04-01T08:32:47.887Z,31.3451
2019-04-01T08:33:50.473Z,31.3207
2019-04-01T08:34:52.781Z,31.1513
2019-04-01T08:35:55.079Z,31.2108
2019-04-01T08:36:57.372Z,31.0063
2019-04-01T08:37:59.710Z,30.9361
2019-04-01T08:39:02.000Z,30.7591
2019-04-01T08:40:04.301Z,30.7027
2019-04-01T08:41:06.617Z,30.6859
2019-04-01T08:42:08.903Z,30.7637
2019-04-01T08:43:11.205Z,30.6661
2019-04-01T08:44:13.502Z,30.6249
2019-04-01T08:45:15.801Z,30.5928
2019-04-01T08:46:18.124Z,30.8583
2019-04-01T08:47:20.429Z,30.8034
2019-04-01T08:48:22.732Z,30.7759
2019-04-01T08:49:25.038Z,30.7912
2019-04-01T08:50:27.339Z,30.8370
2019-04-01T08:51:29.627Z,30.9239
2019-04-01T08:52:31.927Z,30.8537
2019-04-01T08:53:34.228Z,30.8690
2019-04-01T08:54:36.521Z,30.9865
2019-04-01T08:55:38.823Z,31.0643
2019-04-01T08:56:41.123Z,31.0338
2019-04-01T08:57:43.432Z,31.0780
2019-04-01T08:58:45.738Z,30.9606
2019-04-01T08:59:48.076Z,30.9453
2019-04-01T09:00:50.372Z,31.1391
2019-04-01T09:01:52.663Z,31.0964
2019-04-01T09:02:54.957Z,31.1299
2019-04-01T09:03:57.269Z,31.0826
2019-04-01T09:04:59.603Z,31.0979
2019-04-01T09:06:01.980Z,31.2306
2019-04-01T09:07:04.407Z,31.1299
2019-04-01T09:08:06.697Z,31.1894
2019-04-01T09:09:09.004Z,31.2062
2019-04-01T09:10:11.305Z,31.2078
2019-04-01T09:11:13.601Z,31.2215
2019-04-01T09:12:15.995Z,31.2947
2019-04-01T09:13:18.298Z,31.2673
2019-04-01T09:14:20.604Z,31.3863
2019-04-01T09:15:22.895Z,31.3298
2019-04-01T09:16:25.195Z,31.3298
2019-04-01T09:17:27.500Z,31.3161
2019-04-01T09:18:29.786Z,31.3298
2019-04-01T09:19:32.107Z,31.3619
2019-04-01T09:20:34.395Z,31.3619
2019-04-01T09:21:36.699Z,31.3619
2019-04-01T09:22:39.016Z,31.4351
2019-04-01T09:23:41.318Z,31.4534
2019-04-01T09:24:43.610Z,31.4534
2019-04-01T09:25:45.976Z,31.5129
2019-04-01T09:26:48.277Z,31.4549
2019-04-01T09:27:50.579Z,31.5419
2019-04-01T09:28:52.858Z,31.4687
2019-04-01T09:29:55.236Z,31.5145
2019-04-01T09:30:57.529Z,31.4870
2019-04-01T09:31:59.825Z,31.4992
2019-04-01T09:33:02.149Z,31.4000
2019-04-01T09:34:04.444Z,31.4595
2019-04-01T09:35:06.750Z,31.4900
2019-04-01T09:36:09.119Z,31.5038
2019-04-01T09:37:11.486Z,31.4168
2019-04-01T09:38:13.806Z,31.5038
2019-04-01T09:39:16.116Z,31.4595
2019-04-01T09:40:18.460Z,31.4031
2019-04-01T09:41:20.754Z,31.4046
2019-04-01T09:42:23.080Z,31.4366
2019-04-01T09:43:25.376Z,31.4214
2019-04-01T09:44:36.805Z,31.4076
2019-04-01T09:45:36.013Z,31.3481
2019-04-01T09:46:38.353Z,31.4076
2019-04-01T09:47:40.723Z,31.3756
2019-04-01T09:48:43.044Z,31.3344
2019-04-01T09:49:45.354Z,31.4092
2019-04-01T09:50:47.667Z,31.3939
2019-04-01T09:51:49.987Z,31.3802
2019-04-01T09:52:52.289Z,31.3252
2019-04-01T09:53:54.586Z,31.3252
2019-04-01T09:54:56.881Z,31.4443
2019-04-01T09:55:59.179Z,31.4580
2019-04-01T09:57:16.142Z,31.6197
2019-04-01T09:58:09.761Z,31.5908
2019-04-01T09:59:12.067Z,31.5053
2019-04-01T10:00:14.387Z,31.4778
2019-04-01T10:01:16.692Z,31.5541
2019-04-01T10:02:31.163Z,31.5831
2019-04-01T10:03:27.251Z,31.7433
2019-04-01T10:04:29.536Z,31.7327
2019-04-01T10:05:31.860Z,31.7327
2019-04-01T10:06:34.199Z,31.8349
2019-04-01T10:07:36.590Z,31.8334
2019-04-01T10:08:42.570Z,31.7189
2019-04-01T10:09:45.229Z,31.7784
2019-04-01T10:10:47.527Z,31.8379
2019-04-01T10:11:49.834Z,31.7342
2019-04-01T10:12:52.152Z,31.7342
2019-04-01T10:13:54.509Z,31.6747
2019-04-01T10:14:56.791Z,31.6472
2019-04-01T10:15:59.095Z,31.5908
2019-04-01T10:17:01.394Z,31.6152
2019-04-01T10:18:03.704Z,31.6930
2019-04-01T10:19:06.040Z,31.6335
2019-04-01T10:20:08.342Z,31.5190
2019-04-01T10:21:10.707Z,31.5633
2019-04-01T10:22:13.049Z,31.6228
2019-04-01T10:23:15.350Z,31.5785
2019-04-01T10:24:17.643Z,31.6060
2019-04-01T10:25:19.947Z,31.5953
2019-04-01T10:26:22.233Z,31.5099
2019-04-01T10:27:24.595Z,31.5511
2019-04-01T10:28:26.888Z,31.5831
2019-04-01T10:29:29.185Z,31.5236
2019-04-01T10:30:31.577Z,31.5373
2019-04-01T10:31:33.870Z,31.4092
2019-04-01T10:32:36.203Z,31.4366
2019-04-01T10:33:38.512Z,31.4992
2019-04-01T10:34:40.813Z,31.5282
2019-04-01T10:35:43.109Z,31.6609
2019-04-01T10:36:45.417Z,31.5587
2019-04-01T10:37:47.717Z,31.5312
2019-04-01T10:38:50.042Z,31.6609
2019-04-01T10:39:52.336Z,31.5602
2019-04-01T10:40:54.689Z,31.5633
2019-04-01T10:41:57.005Z,31.5312
2019-04-01T10:42:59.337Z,31.5770
2019-04-01T10:44:04.764Z,31.5450
2019-04-01T10:45:07.337Z,31.4443
2019-04-01T10:46:12.241Z,31.5190
2019-04-01T10:47:14.806Z,31.5816
2019-04-01T10:48:17.182Z,31.6365
2019-04-01T10:49:19.234Z,31.5648
2019-04-01T10:50:21.629Z,31.7601
2019-04-01T10:51:24.038Z,31.7281
2019-04-01T10:52:26.325Z,31.6136
2019-04-01T10:53:28.757Z,31.5969
2019-04-01T10:54:31.116Z,31.6411
2019-04-01T10:55:33.559Z,31.6915
2019-04-01T10:56:36.241Z,31.5724
2019-04-01T10:57:38.679Z,31.5557
2019-04-01T10:58:41.025Z,31.6930
2019-04-01T10:59:43.345Z,31.6457
2019-04-01T11:00:45.836Z,31.6045
2019-04-01T11:01:48.227Z,31.7968
2019-04-01T11:02:50.628Z,31.6197
2019-04-01T11:03:53.039Z,31.7388
2019-04-01T11:04:55.383Z,31.7067
2019-04-01T11:05:57.692Z,31.8532
2019-04-01T11:07:00.091Z,31.8715
2019-04-01T11:08:02.534Z,31.8471
2019-04-01T11:09:04.879Z,31.8303
2019-04-01T11:10:11.015Z,31.8608
2019-04-01T11:11:14.086Z,31.7708
2019-04-01T11:12:16.392Z,32.0638
2019-04-01T11:13:18.680Z,31.8761
2019-04-01T11:14:21.010Z,31.9341
2019-04-01T11:15:23.311Z,31.9936
2019-04-01T11:16:25.604Z,31.9905
2019-04-01T11:17:27.909Z,31.9936
2019-04-01T11:18:30.278Z,31.9814
2019-04-01T11:19:32.584Z,31.9203
2019-04-01T11:20:34.897Z,31.8791
2019-04-01T11:21:37.202Z,31.8212
2019-04-01T11:22:39.495Z,31.8379
2019-04-01T11:23:41.789Z,31.7937
2019-04-01T11:24:44.092Z,31.9997
2019-04-01T11:25:46.381Z,31.8395
2019-04-01T11:26:48.707Z,31.8837
2019-04-01T11:27:51.006Z,31.9158
2019-04-01T11:28:53.295Z,32.0348
2019-04-01T11:29:55.592Z,32.0348
2019-04-01T11:30:57.891Z,32.1508
2019-04-01T11:32:00.221Z,32.0455
2019-04-01T11:33:02.589Z,31.9570
2019-04-01T11:34:04.912Z,31.9432
2019-04-01T11:35:07.229Z,31.9295
2019-04-01T11:36:09.606Z,31.6609
2019-04-01T11:37:11.947Z,31.6747
2019-04-01T11:38:14.294Z,31.7098
2019-04-01T11:39:16.672Z,31.5465
2019-04-01T11:40:19.015Z,31.5465
2019-04-01T11:41:21.299Z,31.5450
2019-04-01T11:42:23.593Z,31.4580
2019-04-01T11:43:25.935Z,31.5877
2019-04-01T11:44:28.309Z,31.6365
2019-04-01T11:45:30.701Z,31.5877
2019-04-01T11:46:33.094Z,31.6243
2019-04-01T11:47:35.423Z,31.5648
2019-04-01T11:48:37.754Z,31.6197
2019-04-01T11:49:40.046Z,31.7372
2019-04-01T11:50:42.374Z,31.6640
2019-04-01T11:51:44.766Z,31.5175
2019-04-01T11:52:47.135Z,31.4183
2019-04-01T11:53:49.451Z,31.3756
2019-04-01T11:54:51.767Z,31.3161
2019-04-01T11:55:54.063Z,31.4076
2019-04-01T11:56:56.363Z,31.4397
2019-04-01T11:57:58.660Z,31.6289
2019-04-01T11:59:00.952Z,31.6152
2019-04-01T12:00:03.239Z,31.8807
2019-04-01T12:01:05.539Z,31.9539
2019-04-01T12:02:07.899Z,31.9997
2019-04-01T12:03:10.220Z,31.9295
2019-04-01T12:04:12.544Z,31.9753
2019-04-01T12:05:14.840Z,31.9570
2019-04-01T12:06:17.170Z,32.0775
2019-04-01T12:07:19.473Z,32.0867
2019-04-01T12:08:21.782Z,31.9158
2019-04-01T12:09:24.105Z,31.9341
2019-04-01T12:10:26.431Z,31.8013
2019-04-01T12:11:28.741Z,31.7739
2019-04-01T12:12:31.853Z,31.8029
2019-04-01T12:13:34.258Z,31.8746
2019-04-01T12:14:36.543Z,31.1925
2019-04-01T12:15:38.854Z,30.7942
2019-04-01T12:16:41.174Z,30.3593
2019-04-01T12:17:43.472Z,30.2098
2019-04-01T12:18:45.781Z,30.2052
2019-04-01T12:19:48.085Z,30.1640
2019-04-01T12:20:50.449Z,30.1045
2019-04-01T12:21:52.807Z,29.9672
2019-04-01T12:22:55.113Z,29.9077
2019-04-01T12:23:57.418Z,30.1305
2019-04-01T12:24:59.714Z,30.0725
2019-04-01T12:26:14.434Z,29.9397
2019-04-01T12:27:09.529Z,29.8054
2019-04-01T12:28:11.838Z,29.8939
2019-04-01T12:29:14.532Z,29.7185
2019-04-01T12:30:17.164Z,29.9397
2019-04-01T12:31:19.450Z,29.9214
2019-04-01T12:32:21.746Z,30.0710
2019-04-01T12:33:26.153Z,30.0847
2019-04-01T12:34:28.797Z,30.2403
2019-04-01T12:35:31.089Z,30.3273